createdAt,value
2018-12-17T00:00:20.886Z,996.18
2018-12-17T00:01:20.910Z,996.18
2018-12-17T00:02:20.934Z,996.20
2018-12-17T00:03:20.959Z,996.15
2018-12-17T00:04:20.984Z,996.22
2018-12-17T00:05:21.009Z,996.22
2018-12-17T00:06:21.032Z,996.22
2018-12-17T00:07:21.059Z,996.21
2018-12-17T00:08:21.082Z,996.20
2018-12-17T00:09:21.106Z,996.28
2018-12-17T00:10:21.131Z,996.26
2018-12-17T00:11:21.156Z,996.27
2018-12-17T00:12:21.179Z,996.29
2018-12-17T00:13:21.205Z,996.31
2018-12-17T00:14:21.231Z,996.32
2018-12-17T00:15:21.254Z,996.32
2018-12-17T00:16:21.278Z,996.32
2018-12-17T00:17:21.302Z,996.35
2018-12-17T00:18:21.328Z,996.33
2018-12-17T00:19:21.353Z,996.31
2018-12-17T00:20:21.377Z,996.32
2018-12-17T00:21:21.400Z,996.35
2018-12-17T00:22:21.426Z,996.38
2018-12-17T00:23:21.450Z,996.34
2018-12-17T00:24:21.474Z,996.35
2018-12-17T00:25:21.498Z,996.36
2018-12-17T00:26:21.525Z,996.41
2018-12-17T00:27:21.552Z,996.46
2018-12-17T00:28:21.572Z,996.46
2018-12-17T00:29:21.598Z,996.48
2018-12-17T00:30:21.620Z,996.54
2018-12-17T00:31:21.647Z,996.46
2018-12-17T00:32:21.668Z,996.49
2018-12-17T00:33:21.694Z,996.52
2018-12-17T00:34:21.719Z,996.47
2018-12-17T00:35:21.742Z,996.47
2018-12-17T00:36:21.766Z,996.45
2018-12-17T00:37:21.794Z,996.46
2018-12-17T00:38:21.815Z,996.45
2018-12-17T00:39:21.840Z,996.48
2018-12-17T00:40:21.869Z,996.44
2018-12-17T00:41:21.889Z,996.44
2018-12-17T00:42:21.913Z,996.43
2018-12-17T00:43:21.944Z,996.45
2018-12-17T00:44:21.961Z,996.49
2018-12-17T00:45:21.985Z,996.52
2018-12-17T00:46:22.012Z,996.50
2018-12-17T00:47:22.035Z,996.51
2018-12-17T00:48:22.059Z,996.50
2018-12-17T00:49:22.083Z,996.53
2018-12-17T00:50:22.113Z,996.52
2018-12-17T00:51:22.132Z,996.50
2018-12-17T00:52:22.156Z,996.51
2018-12-17T00:53:22.182Z,996.55
2018-12-17T00:54:22.205Z,996.55
2018-12-17T00:55:22.230Z,996.53
2018-12-17T00:56:22.254Z,996.56
2018-12-17T00:57:22.277Z,996.55
2018-12-17T00:58:22.351Z,996.58
2018-12-17T00:59:22.341Z,996.54
2018-12-17T01:00:22.349Z,996.61
2018-12-17T01:01:22.373Z,996.57
2018-12-17T01:02:22.398Z,996.60
2018-12-17T01:03:22.425Z,996.62
2018-12-17T01:04:22.447Z,996.62
2018-12-17T01:05:22.472Z,996.66
2018-12-17T01:06:22.581Z,996.69
2018-12-17T01:07:22.520Z,996.68
2018-12-17T01:08:22.542Z,996.71
2018-12-17T01:09:22.568Z,996.74
2018-12-17T01:10:22.592Z,996.73
2018-12-17T01:11:22.628Z,996.75
2018-12-17T01:12:22.640Z,996.76
2018-12-17T01:13:22.731Z,996.74
2018-12-17T01:14:22.689Z,996.75
2018-12-17T01:15:22.717Z,996.75
2018-12-17T01:16:22.737Z,996.76
2018-12-17T01:17:22.761Z,996.81
2018-12-17T01:18:22.786Z,996.80
2018-12-17T01:19:22.809Z,996.82
2018-12-17T01:20:22.834Z,996.84
2018-12-17T01:21:22.861Z,996.84
2018-12-17T01:22:22.883Z,996.90
2018-12-17T01:23:22.907Z,996.94
2018-12-17T01:24:22.930Z,996.99
2018-12-17T01:25:22.956Z,997.00
2018-12-17T01:26:22.980Z,997.02
2018-12-17T01:27:23.005Z,997.01
2018-12-17T01:28:23.028Z,997.10
2018-12-17T01:29:23.054Z,997.04
2018-12-17T01:30:23.079Z,997.16
2018-12-17T01:31:23.101Z,997.16
2018-12-17T01:32:23.124Z,997.20
2018-12-17T01:33:23.149Z,997.18
2018-12-17T01:34:23.173Z,997.24
2018-12-17T01:35:23.197Z,997.26
2018-12-17T01:36:23.222Z,997.22
2018-12-17T01:37:23.246Z,997.26
2018-12-17T01:38:23.271Z,997.20
2018-12-17T01:39:23.345Z,997.24
2018-12-17T01:40:23.318Z,997.23
2018-12-17T01:41:23.346Z,997.20
2018-12-17T01:42:23.367Z,997.22
2018-12-17T01:43:26.756Z,997.22
2018-12-17T01:44:23.417Z,997.25
2018-12-17T01:45:23.440Z,997.26
2018-12-17T01:46:23.466Z,997.25
2018-12-17T01:47:23.489Z,997.29
2018-12-17T01:48:23.512Z,997.29
2018-12-17T01:49:23.539Z,997.36
2018-12-17T01:50:23.562Z,997.37
2018-12-17T01:51:23.585Z,997.37
2018-12-17T01:52:23.609Z,997.40
2018-12-17T01:53:23.633Z,997.40
2018-12-17T01:54:23.658Z,997.39
2018-12-17T01:55:23.683Z,997.42
2018-12-17T01:56:23.706Z,997.44
2018-12-17T01:57:23.730Z,997.42
2018-12-17T01:58:29.217Z,997.43
2018-12-17T01:59:23.781Z,997.42
2018-12-17T02:00:23.801Z,997.41
2018-12-17T02:01:23.828Z,997.44
2018-12-17T02:02:23.852Z,997.49
2018-12-17T02:03:23.876Z,997.44
2018-12-17T02:04:23.899Z,997.43
2018-12-17T02:05:23.924Z,997.36
2018-12-17T02:06:24.006Z,997.39
2018-12-17T02:07:23.973Z,997.38
2018-12-17T02:08:23.997Z,997.39
2018-12-17T02:09:24.022Z,997.39
2018-12-17T02:10:24.045Z,997.35
2018-12-17T02:11:24.071Z,997.38
2018-12-17T02:12:24.093Z,997.34
2018-12-17T02:13:24.120Z,997.35
2018-12-17T02:14:24.143Z,997.36
2018-12-17T02:15:24.167Z,997.34
2018-12-17T02:16:24.191Z,997.35
2018-12-17T02:17:24.215Z,997.41
2018-12-17T02:18:24.242Z,997.39
2018-12-17T02:19:24.264Z,997.44
2018-12-17T02:20:24.288Z,997.41
2018-12-17T02:21:24.314Z,997.39
2018-12-17T02:22:24.339Z,997.35
2018-12-17T02:23:24.362Z,997.38
2018-12-17T02:24:24.385Z,997.39
2018-12-17T02:25:24.410Z,997.38
2018-12-17T02:26:25.736Z,997.41
2018-12-17T02:27:24.459Z,997.43
2018-12-17T02:28:24.483Z,997.43
2018-12-17T02:29:24.510Z,997.44
2018-12-17T02:30:24.627Z,997.45
2018-12-17T02:31:24.558Z,997.42
2018-12-17T02:32:24.580Z,997.44
2018-12-17T02:33:24.605Z,997.44
2018-12-17T02:34:24.630Z,997.48
2018-12-17T02:35:25.193Z,997.47
2018-12-17T02:36:24.679Z,997.48
2018-12-17T02:37:24.705Z,997.46
2018-12-17T02:38:24.728Z,997.49
2018-12-17T02:39:24.755Z,997.52
2018-12-17T02:40:24.825Z,997.53
2018-12-17T02:41:24.800Z,997.51
2018-12-17T02:42:24.827Z,997.50
2018-12-17T02:43:24.851Z,997.54
2018-12-17T02:44:24.874Z,997.51
2018-12-17T02:45:24.899Z,997.55
2018-12-17T02:46:24.922Z,997.56
2018-12-17T02:47:24.948Z,997.58
2018-12-17T02:48:24.970Z,997.59
2018-12-17T02:49:25.007Z,997.61
2018-12-17T02:50:25.019Z,997.61
2018-12-17T02:51:25.046Z,997.64
2018-12-17T02:52:25.073Z,997.70
2018-12-17T02:53:25.093Z,997.67
2018-12-17T02:54:25.119Z,997.66
2018-12-17T02:55:25.145Z,997.71
2018-12-17T02:56:25.168Z,997.66
2018-12-17T02:57:25.191Z,997.70
2018-12-17T02:58:25.218Z,997.74
2018-12-17T02:59:25.241Z,997.74
2018-12-17T03:00:25.264Z,997.72
2018-12-17T03:01:25.287Z,997.73
2018-12-17T03:02:25.315Z,997.75
2018-12-17T03:03:25.338Z,997.73
2018-12-17T03:04:25.361Z,997.74
2018-12-17T03:05:25.388Z,997.76
2018-12-17T03:06:25.414Z,997.77
2018-12-17T03:07:25.435Z,997.84
2018-12-17T03:08:25.460Z,997.88
2018-12-17T03:09:25.485Z,997.88
2018-12-17T03:10:25.508Z,997.82
2018-12-17T03:11:25.532Z,997.84
2018-12-17T03:12:25.556Z,997.82
2018-12-17T03:13:25.581Z,997.83
2018-12-17T03:14:25.608Z,997.84
2018-12-17T03:15:25.637Z,997.88
2018-12-17T03:16:25.655Z,997.88
2018-12-17T03:17:25.679Z,997.91
2018-12-17T03:18:25.705Z,997.95
2018-12-17T03:19:25.729Z,997.99
2018-12-17T03:20:25.752Z,997.94
2018-12-17T03:21:25.777Z,997.93
2018-12-17T03:22:25.803Z,997.99
2018-12-17T03:23:25.827Z,998.01
2018-12-17T03:24:25.850Z,998.03
2018-12-17T03:25:25.875Z,998.06
2018-12-17T03:26:25.900Z,998.06
2018-12-17T03:27:25.925Z,998.02
2018-12-17T03:28:25.948Z,998.07
2018-12-17T03:29:25.975Z,998.08
2018-12-17T03:30:25.999Z,998.08
2018-12-17T03:31:26.024Z,998.06
2018-12-17T03:32:26.048Z,998.13
2018-12-17T03:33:26.072Z,998.10
2018-12-17T03:34:26.106Z,998.13
2018-12-17T03:35:26.122Z,998.11
2018-12-17T03:36:26.146Z,998.15
2018-12-17T03:37:26.170Z,998.14
2018-12-17T03:38:26.194Z,998.16
2018-12-17T03:39:26.220Z,998.21
2018-12-17T03:40:26.243Z,998.19
2018-12-17T03:41:26.267Z,998.20
2018-12-17T03:42:26.294Z,998.17
2018-12-17T03:43:26.319Z,998.21
2018-12-17T03:44:26.342Z,998.18
2018-12-17T03:45:26.371Z,998.23
2018-12-17T03:46:26.390Z,998.22
2018-12-17T03:47:26.467Z,998.21
2018-12-17T03:48:26.440Z,998.14
2018-12-17T03:49:26.466Z,998.15
2018-12-17T03:50:26.490Z,998.14
2018-12-17T03:51:26.514Z,998.18
2018-12-17T03:52:26.738Z,998.20
2018-12-17T03:53:26.563Z,998.21
2018-12-17T03:54:26.588Z,998.20
2018-12-17T03:55:26.612Z,998.21
2018-12-17T03:56:26.637Z,998.25
2018-12-17T03:57:26.660Z,998.25
2018-12-17T03:58:26.687Z,998.27
2018-12-17T03:59:26.711Z,998.25
2018-12-17T04:00:26.734Z,998.28
2018-12-17T04:01:26.759Z,998.27
2018-12-17T04:02:26.783Z,998.25
2018-12-17T04:03:26.810Z,998.26
2018-12-17T04:04:26.833Z,998.24
2018-12-17T04:05:26.858Z,998.25
2018-12-17T04:06:26.881Z,998.29
2018-12-17T04:07:26.906Z,998.23
2018-12-17T04:08:26.930Z,998.23
2018-12-17T04:09:26.959Z,998.26
2018-12-17T04:10:26.981Z,998.20
2018-12-17T04:11:27.007Z,998.24
2018-12-17T04:12:27.028Z,998.25
2018-12-17T04:13:27.057Z,998.24
2018-12-17T04:14:27.079Z,998.30
2018-12-17T04:15:27.104Z,998.33
2018-12-17T04:16:27.127Z,998.30
2018-12-17T04:17:27.152Z,998.33
2018-12-17T04:18:27.176Z,998.33
2018-12-17T04:19:27.204Z,998.36
2018-12-17T04:20:27.226Z,998.38
2018-12-17T04:21:27.253Z,998.44
2018-12-17T04:22:27.276Z,998.48
2018-12-17T04:23:27.300Z,998.50
2018-12-17T04:24:27.324Z,998.45
2018-12-17T04:25:27.348Z,998.45
2018-12-17T04:26:27.373Z,998.47
2018-12-17T04:27:27.397Z,998.48
2018-12-17T04:28:27.422Z,998.54
2018-12-17T04:29:27.446Z,998.54
2018-12-17T04:30:27.552Z,998.51
2018-12-17T04:31:27.678Z,998.55
2018-12-17T04:32:27.519Z,998.51
2018-12-17T04:33:27.544Z,998.52
2018-12-17T04:34:27.570Z,998.52
2018-12-17T04:35:28.746Z,998.49
2018-12-17T04:36:27.623Z,998.50
2018-12-17T04:37:27.644Z,998.54
2018-12-17T04:38:27.667Z,998.50
2018-12-17T04:39:27.693Z,998.53
2018-12-17T04:40:27.717Z,998.51
2018-12-17T04:41:27.741Z,998.50
2018-12-17T04:42:27.767Z,998.48
2018-12-17T04:43:27.791Z,998.50
2018-12-17T04:44:27.815Z,998.55
2018-12-17T04:45:27.840Z,998.60
2018-12-17T04:46:27.866Z,998.55
2018-12-17T04:47:27.889Z,998.58
2018-12-17T04:48:27.912Z,998.59
2018-12-17T04:49:27.938Z,998.64
2018-12-17T04:50:27.973Z,998.66
2018-12-17T04:51:27.988Z,998.70
2018-12-17T04:52:28.013Z,998.70
2018-12-17T04:53:28.039Z,998.76
2018-12-17T04:54:28.062Z,998.78
2018-12-17T04:55:28.085Z,998.80
2018-12-17T04:56:28.109Z,998.84
2018-12-17T04:57:28.135Z,998.87
2018-12-17T04:58:28.162Z,998.92
2018-12-17T04:59:28.184Z,998.93
2018-12-17T05:00:28.209Z,998.94
2018-12-17T05:01:28.232Z,998.96
2018-12-17T05:02:28.259Z,998.99
2018-12-17T05:03:28.285Z,999.04
2018-12-17T05:04:28.306Z,999.00
2018-12-17T05:05:28.331Z,999.06
2018-12-17T05:06:28.356Z,999.07
2018-12-17T05:07:28.381Z,999.06
2018-12-17T05:08:28.403Z,999.08
2018-12-17T05:09:28.430Z,999.06
2018-12-17T05:10:28.454Z,999.08
2018-12-17T05:11:28.479Z,999.11
2018-12-17T05:12:28.503Z,999.08
2018-12-17T05:13:28.530Z,999.07
2018-12-17T05:14:28.688Z,999.13
2018-12-17T05:15:28.577Z,999.10
2018-12-17T05:16:28.602Z,999.05
2018-12-17T05:17:28.628Z,999.14
2018-12-17T05:18:28.651Z,999.14
2018-12-17T05:19:28.683Z,999.17
2018-12-17T05:20:28.701Z,999.24
2018-12-17T05:21:28.726Z,999.28
2018-12-17T05:22:28.751Z,999.21
2018-12-17T05:23:28.776Z,999.22
2018-12-17T05:24:28.799Z,999.28
2018-12-17T05:25:28.824Z,999.28
2018-12-17T05:26:28.849Z,999.32
2018-12-17T05:27:28.875Z,999.29
2018-12-17T05:28:28.902Z,999.32
2018-12-17T05:29:28.928Z,999.33
2018-12-17T05:30:28.947Z,999.36
2018-12-17T05:31:28.972Z,999.43
2018-12-17T05:32:28.996Z,999.44
2018-12-17T05:33:29.022Z,999.43
2018-12-17T05:34:29.048Z,999.45
2018-12-17T05:35:29.082Z,999.46
2018-12-17T05:36:29.094Z,999.48
2018-12-17T05:37:29.119Z,999.48
2018-12-17T05:38:29.146Z,999.47
2018-12-17T05:39:29.171Z,999.51
2018-12-17T05:40:29.194Z,999.49
2018-12-17T05:41:29.222Z,999.50
2018-12-17T05:42:29.244Z,999.54
2018-12-17T05:43:29.269Z,999.52
2018-12-17T05:44:29.293Z,999.56
2018-12-17T05:45:29.317Z,999.57
2018-12-17T05:46:29.344Z,999.62
2018-12-17T05:47:29.369Z,999.61
2018-12-17T05:48:29.393Z,999.63
2018-12-17T05:49:29.418Z,999.62
2018-12-17T05:50:29.446Z,999.66
2018-12-17T05:51:29.470Z,999.67
2018-12-17T05:52:29.490Z,999.67
2018-12-17T05:53:29.523Z,999.74
2018-12-17T05:54:29.542Z,999.71
2018-12-17T05:55:29.572Z,999.75
2018-12-17T05:56:29.592Z,999.75
2018-12-17T05:57:29.615Z,999.76
2018-12-17T05:58:29.644Z,999.77
2018-12-17T05:59:29.665Z,999.75
2018-12-17T06:00:29.689Z,999.80
2018-12-17T06:01:29.714Z,999.83
2018-12-17T06:02:29.740Z,999.87
2018-12-17T06:03:29.765Z,999.85
2018-12-17T06:04:29.789Z,999.85
2018-12-17T06:05:29.814Z,999.88
2018-12-17T06:06:29.838Z,999.83
2018-12-17T06:07:29.864Z,999.89
2018-12-17T06:08:29.888Z,999.89
2018-12-17T06:09:29.913Z,999.90
2018-12-17T06:10:29.939Z,999.95
2018-12-17T06:11:29.965Z,999.95
2018-12-17T06:12:29.990Z,999.94
2018-12-17T06:13:30.013Z,999.99
2018-12-17T06:14:30.038Z,999.98
2018-12-17T06:15:30.062Z,1000.02
2018-12-17T06:16:30.086Z,1000.07
2018-12-17T06:17:30.114Z,1000.11
2018-12-17T06:18:30.139Z,1000.11
2018-12-17T06:19:30.165Z,1000.16
2018-12-17T06:20:30.185Z,1000.16
2018-12-17T06:21:30.210Z,1000.17
2018-12-17T06:22:30.235Z,1000.12
2018-12-17T06:23:30.260Z,1000.08
2018-12-17T06:24:30.285Z,1000.14
2018-12-17T06:25:30.310Z,1000.15
2018-12-17T06:26:30.335Z,1000.17
2018-12-17T06:27:36.602Z,1000.16
2018-12-17T06:28:30.383Z,1000.18
2018-12-17T06:29:35.558Z,1000.18
2018-12-17T06:30:30.433Z,1000.20
2018-12-17T06:31:30.459Z,1000.19
2018-12-17T06:32:30.481Z,1000.21
2018-12-17T06:33:30.507Z,1000.20
2018-12-17T06:34:30.532Z,1000.23
2018-12-17T06:35:30.558Z,1000.24
2018-12-17T06:36:30.590Z,1000.25
2018-12-17T06:37:30.606Z,1000.28
2018-12-17T06:38:30.633Z,1000.30
2018-12-17T06:39:30.657Z,1000.32
2018-12-17T06:40:30.679Z,1000.30
2018-12-17T06:41:30.704Z,1000.29
2018-12-17T06:42:30.729Z,1000.29
2018-12-17T06:43:30.752Z,1000.32
2018-12-17T06:44:30.789Z,1000.32
2018-12-17T06:45:30.802Z,1000.30
2018-12-17T06:46:30.829Z,1000.38
2018-12-17T06:47:30.852Z,1000.31
2018-12-17T06:48:30.877Z,1000.39
2018-12-17T06:49:30.901Z,1000.34
2018-12-17T06:50:30.927Z,1000.44
2018-12-17T06:51:30.959Z,1000.41
2018-12-17T06:52:30.974Z,1000.44
2018-12-17T06:53:30.999Z,1000.49
2018-12-17T06:54:31.025Z,1000.54
2018-12-17T06:55:31.051Z,1000.51
2018-12-17T06:56:31.073Z,1000.51
2018-12-17T06:57:31.097Z,1000.52
2018-12-17T06:58:31.123Z,1000.58
2018-12-17T06:59:31.147Z,1000.62
2018-12-17T07:00:31.176Z,1000.65
2018-12-17T07:01:31.197Z,1000.70
2018-12-17T07:02:31.222Z,1000.73
2018-12-17T07:03:31.246Z,1000.72
2018-12-17T07:04:31.270Z,1000.78
2018-12-17T07:05:31.297Z,1000.80
2018-12-17T07:06:31.320Z,1000.83
2018-12-17T07:07:31.345Z,1000.83
2018-12-17T07:08:31.370Z,1000.84
2018-12-17T07:09:31.396Z,1000.83
2018-12-17T07:10:31.419Z,1000.83
2018-12-17T07:11:31.444Z,1000.85
2018-12-17T07:12:31.468Z,1000.88
2018-12-17T07:13:31.494Z,1000.92
2018-12-17T07:14:36.519Z,1000.88
2018-12-17T07:15:31.544Z,1000.95
2018-12-17T07:16:31.567Z,1000.92
2018-12-17T07:17:31.591Z,1000.96
2018-12-17T07:18:31.621Z,1000.98
2018-12-17T07:19:31.642Z,1000.99
2018-12-17T07:20:31.664Z,1001.05
2018-12-17T07:21:31.705Z,1001.02
2018-12-17T07:22:31.718Z,1001.05
2018-12-17T07:23:31.742Z,1001.06
2018-12-17T07:24:31.767Z,1001.06
2018-12-17T07:25:31.790Z,1001.09
2018-12-17T07:26:31.814Z,1001.07
2018-12-17T07:27:31.840Z,1001.09
2018-12-17T07:28:31.864Z,1001.11
2018-12-17T07:29:31.888Z,1001.08
2018-12-17T07:30:31.913Z,1001.11
2018-12-17T07:31:31.938Z,1001.14
2018-12-17T07:32:31.963Z,1001.15
2018-12-17T07:33:31.987Z,1001.15
2018-12-17T07:34:32.015Z,1001.16
2018-12-17T07:35:32.037Z,1001.18
2018-12-17T07:36:32.062Z,1001.18
2018-12-17T07:37:32.086Z,1001.21
2018-12-17T07:38:32.112Z,1001.24
2018-12-17T07:39:32.136Z,1001.25
2018-12-17T07:40:32.161Z,1001.24
2018-12-17T07:41:32.184Z,1001.30
2018-12-17T07:42:32.209Z,1001.32
2018-12-17T07:43:32.234Z,1001.34
2018-12-17T07:44:32.258Z,1001.39
2018-12-17T07:45:32.284Z,1001.35
2018-12-17T07:46:32.308Z,1001.37
2018-12-17T07:47:32.334Z,1001.42
2018-12-17T07:48:32.359Z,1001.45
2018-12-17T07:49:32.384Z,1001.42
2018-12-17T07:50:32.408Z,1001.41
2018-12-17T07:51:32.483Z,1001.48
2018-12-17T07:52:32.456Z,1001.46
2018-12-17T07:53:32.481Z,1001.54
2018-12-17T07:54:32.506Z,1001.54
2018-12-17T07:55:32.530Z,1001.54
2018-12-17T07:56:32.561Z,1001.56
2018-12-17T07:57:32.581Z,1001.58
2018-12-17T07:58:32.604Z,1001.63
2018-12-17T07:59:32.629Z,1001.64
2018-12-17T08:00:32.653Z,1001.69
2018-12-17T08:01:32.679Z,1001.73
2018-12-17T08:02:32.704Z,1001.76
2018-12-17T08:03:32.728Z,1001.69
2018-12-17T08:04:32.752Z,1001.70
2018-12-17T08:05:32.777Z,1001.78
2018-12-17T08:06:32.803Z,1001.81
2018-12-17T08:07:32.828Z,1001.81
2018-12-17T08:08:35.623Z,1001.80
2018-12-17T08:09:32.876Z,1001.84
2018-12-17T08:10:32.902Z,1001.84
2018-12-17T08:11:32.927Z,1001.85
2018-12-17T08:12:32.951Z,1001.82
2018-12-17T08:13:32.978Z,1001.87
2018-12-17T08:14:33.001Z,1001.85
2018-12-17T08:15:33.027Z,1001.95
2018-12-17T08:16:33.052Z,1001.91
2018-12-17T08:17:33.076Z,1001.94
2018-12-17T08:18:33.100Z,1002.01
2018-12-17T08:19:33.125Z,1001.98
2018-12-17T08:20:33.151Z,1002.05
2018-12-17T08:21:33.175Z,1002.03
2018-12-17T08:22:33.200Z,1002.00
2018-12-17T08:23:33.226Z,1002.05
2018-12-17T08:24:33.251Z,1002.09
2018-12-17T08:25:33.275Z,1002.18
2018-12-17T08:26:33.300Z,1002.14
2018-12-17T08:27:33.331Z,1002.14
2018-12-17T08:28:33.352Z,1002.11
2018-12-17T08:29:33.374Z,1002.03
2018-12-17T08:30:33.400Z,1002.08
2018-12-17T08:31:33.425Z,1002.04
2018-12-17T08:32:33.448Z,1002.07
2018-12-17T08:33:33.473Z,1002.05
2018-12-17T08:34:33.499Z,1002.08
2018-12-17T08:35:33.524Z,1002.10
2018-12-17T08:36:33.549Z,1002.08
2018-12-17T08:37:33.573Z,1002.08
2018-12-17T08:38:33.603Z,1002.16
2018-12-17T08:39:33.626Z,1002.16
2018-12-17T08:40:33.657Z,1002.21
2018-12-17T08:41:33.675Z,1002.25
2018-12-17T08:42:33.701Z,1002.27
2018-12-17T08:43:33.723Z,1002.31
2018-12-17T08:44:33.749Z,1002.26
2018-12-17T08:45:33.773Z,1002.28
2018-12-17T08:46:33.799Z,1002.31
2018-12-17T08:47:33.825Z,1002.33
2018-12-17T08:48:33.851Z,1002.33
2018-12-17T08:49:33.875Z,1002.40
2018-12-17T08:50:33.899Z,1002.37
2018-12-17T08:51:33.924Z,1002.35
2018-12-17T08:52:33.949Z,1002.39
2018-12-17T08:53:33.974Z,1002.40
2018-12-17T08:54:34.001Z,1002.43
2018-12-17T08:55:34.025Z,1002.42
2018-12-17T08:56:34.051Z,1002.50
2018-12-17T08:57:37.925Z,1002.47
2018-12-17T08:58:34.103Z,1002.46
2018-12-17T08:59:34.128Z,1002.52
2018-12-17T09:00:34.152Z,1002.54
2018-12-17T09:01:34.177Z,1002.58
2018-12-17T09:02:34.203Z,1002.58
2018-12-17T09:03:34.228Z,1002.59
2018-12-17T09:04:34.258Z,1002.59
2018-12-17T09:05:34.280Z,1002.62
2018-12-17T09:06:34.305Z,1002.65
2018-12-17T09:07:34.330Z,1002.61
2018-12-17T09:08:34.354Z,1002.63
2018-12-17T09:09:34.380Z,1002.63
2018-12-17T09:10:34.406Z,1002.56
2018-12-17T09:11:34.431Z,1002.54
2018-12-17T09:12:34.456Z,1002.55
2018-12-17T09:13:34.483Z,1002.57
2018-12-17T09:14:34.506Z,1002.63
2018-12-17T09:15:34.534Z,1002.62
2018-12-17T09:16:34.559Z,1002.64
2018-12-17T09:17:34.584Z,1002.67
2018-12-17T09:18:34.611Z,1002.70
2018-12-17T09:19:34.635Z,1002.68
2018-12-17T09:20:34.660Z,1002.72
2018-12-17T09:21:34.685Z,1002.74
2018-12-17T09:22:34.711Z,1002.85
2018-12-17T09:23:34.787Z,1002.84
2018-12-17T09:24:34.764Z,1002.90
2018-12-17T09:25:34.793Z,1002.88
2018-12-17T09:26:34.814Z,1002.93
2018-12-17T09:27:34.841Z,1002.94
2018-12-17T09:28:34.864Z,1002.99
2018-12-17T09:29:34.891Z,1003.01
2018-12-17T09:30:41.143Z,1002.99
2018-12-17T09:31:34.943Z,1003.05
2018-12-17T09:32:34.967Z,1003.02
2018-12-17T09:33:34.994Z,1003.06
2018-12-17T09:34:35.020Z,1003.05
2018-12-17T09:35:35.045Z,1003.07
2018-12-17T09:36:35.070Z,1003.07
2018-12-17T09:37:35.098Z,1003.07
2018-12-17T09:38:35.122Z,1003.11
2018-12-17T09:39:35.148Z,1003.08
2018-12-17T09:40:35.173Z,1003.09
2018-12-17T09:41:35.201Z,1003.05
2018-12-17T09:42:35.226Z,1003.06
2018-12-17T09:43:35.252Z,1003.08
2018-12-17T09:44:35.277Z,1003.06
2018-12-17T09:45:35.304Z,1003.12
2018-12-17T09:46:35.329Z,1003.12
2018-12-17T09:47:35.356Z,1003.13
2018-12-17T09:48:35.379Z,1003.10
2018-12-17T09:49:35.409Z,1003.12
2018-12-17T09:50:35.433Z,1003.16
2018-12-17T09:51:35.460Z,1003.18
2018-12-17T09:52:35.484Z,1003.18
2018-12-17T09:53:35.510Z,1003.15
2018-12-17T09:54:35.537Z,1003.13
2018-12-17T09:55:36.407Z,1003.18
2018-12-17T09:56:35.587Z,1003.19
2018-12-17T09:57:35.615Z,1003.25
2018-12-17T09:58:35.642Z,1003.18
2018-12-17T09:59:35.668Z,1003.20
2018-12-17T10:00:35.693Z,1003.22
2018-12-17T10:01:35.720Z,1003.25
2018-12-17T10:02:35.748Z,1003.18
2018-12-17T10:03:35.773Z,1003.20
2018-12-17T10:04:35.798Z,1003.21
2018-12-17T10:05:35.824Z,1003.20
2018-12-17T10:06:35.901Z,1003.22
2018-12-17T10:07:35.877Z,1003.23
2018-12-17T10:08:35.904Z,1003.24
2018-12-17T10:09:35.929Z,1003.23
2018-12-17T10:10:35.955Z,1003.30
2018-12-17T10:11:35.982Z,1003.30
2018-12-17T10:12:36.009Z,1003.28
2018-12-17T10:13:36.035Z,1003.27
2018-12-17T10:14:36.061Z,1003.30
2018-12-17T10:15:36.089Z,1003.29
2018-12-17T10:16:36.112Z,1003.35
2018-12-17T10:17:36.190Z,1003.37
2018-12-17T10:18:36.919Z,1003.36
2018-12-17T10:19:36.193Z,1003.36
2018-12-17T10:20:36.219Z,1003.38
2018-12-17T10:21:36.244Z,1003.39
2018-12-17T10:22:36.270Z,1003.34
2018-12-17T10:23:36.297Z,1003.33
2018-12-17T10:24:36.321Z,1003.32
2018-12-17T10:25:36.349Z,1003.31
2018-12-17T10:26:36.377Z,1003.26
2018-12-17T10:27:36.405Z,1003.30
2018-12-17T10:28:36.427Z,1003.28
2018-12-17T10:29:36.453Z,1003.27
2018-12-17T10:30:36.479Z,1003.30
2018-12-17T10:31:36.505Z,1003.27
2018-12-17T10:32:36.530Z,1003.30
2018-12-17T10:33:36.558Z,1003.29
2018-12-17T10:34:36.583Z,1003.32
2018-12-17T10:35:36.611Z,1003.27
2018-12-17T10:36:36.636Z,1003.32
2018-12-17T10:37:36.663Z,1003.33
2018-12-17T10:38:36.688Z,1003.34
2018-12-17T10:39:36.714Z,1003.30
2018-12-17T10:40:36.739Z,1003.29
2018-12-17T10:41:36.767Z,1003.30
2018-12-17T10:42:36.791Z,1003.29
2018-12-17T10:43:36.817Z,1003.31
2018-12-17T10:44:36.842Z,1003.29
2018-12-17T10:45:36.868Z,1003.27
2018-12-17T10:46:36.899Z,1003.25
2018-12-17T10:47:36.921Z,1003.27
2018-12-17T10:48:36.948Z,1003.28
2018-12-17T10:49:36.973Z,1003.25
2018-12-17T10:50:37.001Z,1003.25
2018-12-17T10:51:37.026Z,1003.29
2018-12-17T10:52:37.052Z,1003.26
2018-12-17T10:53:37.078Z,1003.27
2018-12-17T10:54:37.104Z,1003.30
2018-12-17T10:55:37.131Z,1003.27
2018-12-17T10:56:37.157Z,1003.25
2018-12-17T10:57:37.183Z,1003.29
2018-12-17T10:58:37.209Z,1003.32
2018-12-17T10:59:37.235Z,1003.31
2018-12-17T11:00:39.429Z,1003.31
2018-12-17T11:01:37.288Z,1003.30
2018-12-17T11:02:37.313Z,1003.29
2018-12-17T11:03:37.339Z,1003.27
2018-12-17T11:04:37.368Z,1003.23
2018-12-17T11:05:37.391Z,1003.24
2018-12-17T11:06:37.445Z,1003.29
2018-12-17T11:07:37.445Z,1003.26
2018-12-17T11:08:37.469Z,1003.23
2018-12-17T11:09:37.495Z,1003.25
2018-12-17T11:10:37.523Z,1003.20
2018-12-17T11:11:37.549Z,1003.25
2018-12-17T11:12:37.573Z,1003.28
2018-12-17T11:13:37.600Z,1003.25
2018-12-17T11:14:37.670Z,1003.21
2018-12-17T11:15:37.653Z,1003.26
2018-12-17T11:16:37.679Z,1003.23
2018-12-17T11:17:37.704Z,1003.27
2018-12-17T11:18:37.732Z,1003.30
2018-12-17T11:19:37.756Z,1003.35
2018-12-17T11:20:37.782Z,1003.34
2018-12-17T11:21:37.808Z,1003.32
2018-12-17T11:22:37.838Z,1003.26
2018-12-17T11:23:37.861Z,1003.24
2018-12-17T11:24:37.887Z,1003.30
2018-12-17T11:25:37.915Z,1003.33
2018-12-17T11:26:37.939Z,1003.28
2018-12-17T11:27:37.967Z,1003.29
2018-12-17T11:28:37.993Z,1003.31
2018-12-17T11:29:38.020Z,1003.27
2018-12-17T11:30:38.044Z,1003.26
2018-12-17T11:31:38.071Z,1003.22
2018-12-17T11:32:38.098Z,1003.29
2018-12-17T11:33:38.123Z,1003.23
2018-12-17T11:34:38.152Z,1003.20
2018-12-17T11:35:38.177Z,1003.23
2018-12-17T11:36:38.210Z,1003.20
2018-12-17T11:37:38.228Z,1003.20
2018-12-17T11:38:38.254Z,1003.15
2018-12-17T11:39:38.281Z,1003.13
2018-12-17T11:40:38.306Z,1003.17
2018-12-17T11:41:38.333Z,1003.20
2018-12-17T11:42:38.359Z,1003.17
2018-12-17T11:43:43.738Z,1003.18
2018-12-17T11:44:38.412Z,1003.22
2018-12-17T11:45:38.438Z,1003.23
2018-12-17T11:46:38.464Z,1003.24
2018-12-17T11:47:38.491Z,1003.22
2018-12-17T11:48:38.516Z,1003.15
2018-12-17T11:49:38.543Z,1003.17
2018-12-17T11:50:38.571Z,1003.14
2018-12-17T11:51:38.596Z,1003.14
2018-12-17T11:52:38.622Z,1003.16
2018-12-17T11:53:38.649Z,1003.17
2018-12-17T11:54:38.725Z,1003.21
2018-12-17T11:55:38.702Z,1003.21
2018-12-17T11:56:38.730Z,1003.16
2018-12-17T11:57:38.756Z,1003.18
2018-12-17T11:58:38.783Z,1003.23
2018-12-17T11:59:38.808Z,1003.21
2018-12-17T12:00:38.834Z,1003.18
2018-12-17T12:01:38.861Z,1003.19
2018-12-17T12:02:38.889Z,1003.23
2018-12-17T12:03:38.915Z,1003.19
2018-12-17T12:04:38.942Z,1003.19
2018-12-17T12:05:38.968Z,1003.21
2018-12-17T12:06:39.054Z,1003.23
2018-12-17T12:07:39.023Z,1003.23
2018-12-17T12:08:39.051Z,1003.21
2018-12-17T12:09:39.078Z,1003.20
2018-12-17T12:10:39.106Z,1003.17
2018-12-17T12:11:39.133Z,1003.20
2018-12-17T12:12:39.160Z,1003.18
2018-12-17T12:13:39.188Z,1003.21
2018-12-17T12:14:39.215Z,1003.25
2018-12-17T12:15:39.242Z,1003.26
2018-12-17T12:16:39.270Z,1003.26
2018-12-17T12:17:39.296Z,1003.25